createdAt,value
2018-10-02T00:01:17.577Z,2.50
2018-10-02T00:03:46.624Z,3.37
2018-10-02T00:06:15.288Z,3.33
2018-10-02T00:08:43.858Z,9.03
2018-10-02T00:11:17.617Z,3.43
2018-10-02T00:13:51.513Z,3.23
2018-10-02T00:16:20.241Z,5.13
2018-10-02T00:18:49.120Z,1.90
2018-10-02T00:21:17.517Z,3.20
2018-10-02T00:23:45.966Z,3.47
2018-10-02T00:26:14.373Z,2.40
2018-10-02T00:28:43.132Z,3.07
2018-10-02T00:31:12.092Z,3.50
2018-10-02T00:33:40.745Z,1.67
2018-10-02T00:36:09.152Z,10.87
2018-10-02T00:38:37.615Z,2.57
2018-10-02T00:41:05.967Z,2.50
2018-10-02T00:43:34.641Z,1.93
2018-10-02T00:46:03.241Z,3.07
2018-10-02T00:48:31.671Z,3.70
2018-10-02T00:51:00.388Z,2.50
2018-10-02T00:53:29.475Z,4.23
2018-10-02T00:55:57.954Z,4.13
2018-10-02T00:58:26.399Z,3.73
2018-10-02T01:00:55.069Z,4.00
2018-10-02T01:03:23.455Z,1.77
2018-10-02T01:05:52.096Z,3.53
2018-10-02T01:08:20.764Z,5.83
2018-10-02T01:10:49.200Z,6.00
2018-10-02T01:13:17.928Z,4.73
2018-10-02T01:15:46.432Z,5.50
2018-10-02T01:18:15.057Z,2.40
2018-10-02T01:20:43.925Z,3.50
2018-10-02T01:23:12.287Z,2.17
2018-10-02T01:25:41.264Z,3.47
2018-10-02T01:28:09.844Z,4.13
2018-10-02T01:30:38.533Z,3.43
2018-10-02T01:33:07.349Z,5.77
2018-10-02T01:35:35.765Z,3.67
2018-10-02T01:38:04.278Z,3.53
2018-10-02T01:40:32.850Z,3.90
2018-10-02T01:43:01.985Z,4.43
2018-10-02T01:45:30.400Z,6.17
2018-10-02T01:47:58.914Z,4.83
2018-10-02T01:50:27.326Z,3.73
2018-10-02T01:52:55.973Z,4.37
2018-10-02T01:55:24.676Z,3.77
2018-10-02T01:57:53.146Z,4.17
2018-10-02T02:00:21.660Z,7.87
2018-10-02T02:02:50.077Z,3.83
2018-10-02T02:05:18.500Z,5.80
2018-10-02T02:07:47.160Z,10.23
2018-10-02T02:10:15.602Z,8.57
2018-10-02T02:12:44.298Z,8.03
2018-10-02T02:15:12.732Z,3.77
2018-10-02T02:17:41.415Z,5.20
2018-10-02T02:20:10.153Z,6.07
2018-10-02T02:22:38.622Z,9.43
2018-10-02T02:25:07.038Z,4.53
2018-10-02T02:27:35.726Z,5.40
2018-10-02T02:30:04.182Z,6.13
2018-10-02T02:32:32.733Z,8.60
2018-10-02T02:35:01.225Z,8.77
2018-10-02T02:37:29.669Z,6.50
2018-10-02T02:39:58.106Z,4.30
2018-10-02T02:42:26.765Z,8.70
2018-10-02T02:44:55.484Z,8.73
2018-10-02T02:47:29.276Z,12.70
2018-10-02T02:50:03.057Z,9.80
2018-10-02T02:52:38.007Z,14.33
2018-10-02T02:55:06.894Z,8.87
2018-10-02T02:57:35.314Z,10.80
2018-10-02T03:00:04.241Z,10.63
2018-10-02T03:02:32.628Z,15.37
2018-10-02T03:05:01.475Z,13.03
2018-10-02T03:07:30.153Z,13.83
2018-10-02T03:09:58.639Z,14.20
2018-10-02T03:12:27.024Z,11.97
2018-10-02T03:14:55.457Z,9.97
2018-10-02T03:17:24.114Z,9.87
2018-10-02T03:19:52.855Z,11.60
2018-10-02T03:22:21.288Z,13.43
2018-10-02T03:24:49.785Z,12.60
2018-10-02T03:27:18.248Z,11.90
2018-10-02T03:29:46.960Z,16.30
2018-10-02T03:32:15.638Z,13.40
2018-10-02T03:34:44.352Z,15.17
2018-10-02T03:37:13.060Z,14.90
2018-10-02T03:39:41.897Z,13.90
2018-10-02T03:42:10.277Z,14.67
2018-10-02T03:44:39.001Z,10.23
2018-10-02T03:47:07.952Z,7.63
2018-10-02T03:49:36.379Z,14.60
2018-10-02T03:52:05.098Z,15.43
2018-10-02T03:54:33.542Z,13.93
2018-10-02T03:57:01.995Z,11.20
2018-10-02T03:59:30.525Z,14.33
2018-10-02T04:01:59.288Z,12.80
2018-10-02T04:04:27.717Z,14.07
2018-10-02T04:06:56.674Z,11.67
2018-10-02T04:09:25.363Z,10.33
2018-10-02T04:11:54.037Z,10.00
2018-10-02T04:14:22.660Z,11.53
2018-10-02T04:16:51.316Z,7.53
2018-10-02T04:19:19.988Z,9.30
2018-10-02T04:21:48.471Z,10.97
2018-10-02T04:24:17.109Z,9.57
2018-10-02T04:26:45.669Z,11.60
2018-10-02T04:29:14.342Z,22.50
2018-10-02T04:31:43.060Z,11.93
2018-10-02T04:34:11.776Z,16.10
2018-10-02T04:36:40.178Z,10.57
2018-10-02T04:39:09.130Z,12.07
2018-10-02T04:41:37.892Z,19.37
2018-10-02T04:44:06.522Z,10.73
2018-10-02T04:46:35.558Z,13.40
2018-10-02T04:49:04.202Z,14.73
2018-10-02T04:51:32.572Z,8.40
2018-10-02T04:54:01.304Z,14.20
2018-10-02T04:56:30.023Z,15.80
2018-10-02T04:58:58.657Z,14.10
2018-10-02T05:01:27.028Z,11.97
2018-10-02T05:03:55.536Z,13.73
2018-10-02T05:06:23.987Z,15.53
2018-10-02T05:08:52.539Z,8.47
2018-10-02T05:11:21.537Z,13.90
2018-10-02T05:13:50.238Z,12.30
2018-10-02T05:16:18.754Z,13.60
2018-10-02T05:18:47.213Z,8.10
2018-10-02T05:21:16.012Z,11.43
2018-10-02T05:23:44.621Z,13.17
2018-10-02T05:26:13.419Z,8.77
2018-10-02T05:28:42.090Z,12.77
2018-10-02T05:31:10.481Z,11.10
2018-10-02T05:33:38.922Z,4.90
2018-10-02T05:36:07.342Z,5.07
2018-10-02T05:38:36.007Z,15.27
2018-10-02T05:41:04.803Z,10.10
2018-10-02T05:43:33.311Z,6.87
2018-10-02T05:46:02.060Z,12.43
2018-10-02T05:48:30.449Z,11.40
2018-10-02T05:50:59.177Z,8.33
2018-10-02T05:53:27.781Z,10.07
2018-10-02T05:55:56.438Z,14.40
2018-10-02T05:58:25.160Z,12.60
2018-10-02T06:00:53.713Z,10.83
2018-10-02T06:03:22.099Z,13.20
2018-10-02T06:05:50.726Z,13.27
2018-10-02T06:08:19.305Z,14.93
2018-10-02T06:10:47.734Z,14.00
2018-10-02T06:13:16.436Z,15.27
2018-10-02T06:15:45.086Z,12.00
2018-10-02T06:18:13.696Z,13.10
2018-10-02T06:20:42.381Z,11.83
2018-10-02T06:23:10.814Z,14.30
2018-10-02T06:25:39.253Z,8.47
2018-10-02T06:28:07.658Z,11.23
2018-10-02T06:30:36.291Z,13.63
2018-10-02T06:33:04.781Z,14.40
2018-10-02T06:35:33.510Z,10.20
2018-10-02T06:38:02.040Z,18.17
2018-10-02T06:40:30.433Z,18.13
2018-10-02T06:42:58.846Z,15.67
2018-10-02T06:45:27.777Z,23.43
2018-10-02T06:47:56.334Z,14.03
2018-10-02T06:50:24.761Z,11.43
2018-10-02T06:52:53.214Z,13.87
2018-10-02T06:55:21.875Z,14.20
2018-10-02T06:57:50.763Z,18.83
2018-10-02T07:00:19.466Z,14.90
2018-10-02T07:02:48.298Z,13.10
2018-10-02T07:05:16.698Z,21.00
2018-10-02T07:07:45.153Z,12.53
2018-10-02T07:10:13.912Z,21.23
2018-10-02T07:12:42.424Z,9.40
2018-10-02T07:15:11.260Z,11.20
2018-10-02T07:17:40.010Z,20.40
2018-10-02T07:20:08.469Z,14.73
2018-10-02T07:22:37.152Z,15.93
2018-10-02T07:25:06.068Z,22.83
2018-10-02T07:27:34.907Z,17.97
2018-10-02T07:30:03.703Z,19.13
2018-10-02T07:32:32.491Z,15.63
2018-10-02T07:35:00.917Z,17.10
2018-10-02T07:37:29.451Z,15.70
2018-10-02T07:39:57.857Z,18.50
2018-10-02T07:42:26.361Z,19.00
2018-10-02T07:44:54.716Z,46.93
2018-10-02T07:47:23.268Z,17.30
2018-10-02T07:49:52.117Z,20.30
2018-10-02T07:52:20.548Z,20.60
2018-10-02T07:54:49.159Z,25.73
2018-10-02T07:57:17.762Z,20.27
2018-10-02T07:59:46.495Z,24.40
2018-10-02T08:02:14.814Z,44.85
2018-10-02T08:04:43.262Z,32.23
2018-10-02T08:07:11.910Z,29.20
2018-10-02T08:09:40.356Z,33.57
2018-10-02T08:12:08.780Z,27.20
2018-10-02T08:14:37.447Z,28.27
2018-10-02T08:17:06.034Z,26.67
2018-10-02T08:19:34.493Z,28.40
2018-10-02T08:22:03.145Z,37.13
2018-10-02T08:24:31.730Z,25.53
2018-10-02T08:27:00.192Z,20.13
2018-10-02T08:29:28.661Z,38.10
2018-10-02T08:31:57.602Z,22.20
2018-10-02T08:34:26.069Z,25.07
2018-10-02T08:36:54.558Z,14.20
2018-10-02T08:39:23.166Z,22.47
2018-10-02T08:41:51.612Z,14.10
2018-10-02T08:44:20.180Z,17.40
2018-10-02T08:46:48.827Z,23.97
2018-10-02T08:49:17.722Z,17.37
2018-10-02T08:51:46.190Z,17.63
2018-10-02T08:54:14.859Z,34.40
2018-10-02T08:56:43.734Z,15.33
2018-10-02T08:59:12.625Z,23.80
2018-10-02T09:01:41.496Z,21.23
2018-10-02T09:04:09.926Z,21.73
2018-10-02T09:06:38.432Z,16.87
2018-10-02T09:09:09.904Z,15.60
2018-10-02T09:11:38.382Z,20.10
2018-10-02T09:14:07.026Z,17.80
2018-10-02T09:16:35.579Z,15.33
2018-10-02T09:19:04.150Z,18.77
2018-10-02T09:21:32.603Z,21.33
2018-10-02T09:24:01.352Z,25.00
2018-10-02T09:26:30.046Z,20.57
2018-10-02T09:28:58.709Z,18.57
2018-10-02T09:31:32.454Z,17.87
2018-10-02T09:34:06.037Z,13.37
2018-10-02T09:36:39.767Z,15.33
2018-10-02T09:40:11.743Z,12.87
2018-10-02T09:42:45.374Z,18.07
2018-10-02T09:45:13.757Z,18.07
2018-10-02T09:47:42.467Z,15.83
2018-10-02T09:50:11.005Z,13.47
2018-10-02T09:52:39.502Z,19.97
2018-10-02T09:55:08.874Z,12.13
2018-10-02T09:57:37.346Z,12.00
2018-10-02T10:00:08.065Z,18.87
2018-10-02T10:02:37.057Z,14.43
2018-10-02T10:05:05.517Z,14.07
2018-10-02T10:07:34.220Z,10.13
2018-10-02T10:10:02.664Z,40.40
2018-10-02T10:12:31.317Z,13.93
2018-10-02T10:15:00.057Z,17.03
2018-10-02T10:17:28.648Z,11.13
2018-10-02T10:19:57.052Z,20.20
2018-10-02T10:22:25.966Z,13.93
2018-10-02T10:24:54.621Z,9.20
2018-10-02T10:27:23.516Z,17.13
2018-10-02T10:29:51.917Z,15.77
2018-10-02T10:32:20.396Z,7.93
2018-10-02T10:34:48.906Z,15.43
2018-10-02T10:37:17.364Z,11.47
2018-10-02T10:39:45.810Z,7.20
2018-10-02T10:42:14.709Z,13.77
2018-10-02T10:44:43.094Z,12.87
2018-10-02T10:47:11.476Z,8.70
2018-10-02T10:49:40.257Z,11.10
2018-10-02T10:52:08.898Z,14.70
2018-10-02T10:54:37.365Z,13.63
2018-10-02T10:57:06.012Z,7.87
2018-10-02T10:59:34.517Z,13.33
2018-10-02T11:02:03.077Z,14.93
2018-10-02T11:04:31.487Z,11.57
2018-10-02T11:07:00.887Z,14.53
2018-10-02T11:09:29.429Z,9.30
2018-10-02T11:11:57.844Z,11.33
2018-10-02T11:14:26.309Z,7.13
2018-10-02T11:16:54.980Z,5.40
2018-10-02T11:19:23.484Z,7.43
2018-10-02T11:21:52.284Z,10.13
2018-10-02T11:24:21.440Z,6.37
2018-10-02T11:26:49.850Z,9.10
2018-10-02T11:29:18.305Z,5.37
2018-10-02T11:31:46.932Z,8.23
2018-10-02T11:34:16.217Z,7.43
2018-10-02T11:36:44.712Z,5.97
2018-10-02T11:39:13.246Z,8.23
2018-10-02T11:41:41.932Z,9.20
2018-10-02T11:44:10.513Z,12.07
2018-10-02T11:46:39.861Z,11.33
2018-10-02T11:49:08.642Z,15.80
2018-10-02T11:51:37.193Z,7.30
2018-10-02T11:54:06.020Z,9.60
2018-10-02T11:56:34.632Z,12.53
2018-10-02T11:59:03.099Z,2.87
2018-10-02T12:01:31.586Z,4.63
2018-10-02T12:04:00.118Z,6.33
2018-10-02T12:06:29.352Z,8.77
2018-10-02T12:08:57.954Z,10.10
2018-10-02T12:11:26.600Z,11.83
2018-10-02T12:13:55.112Z,8.37
2018-10-02T12:16:23.545Z,5.80
2018-10-02T12:18:52.054Z,11.20
2018-10-02T12:21:21.530Z,6.97
2018-10-02T12:23:49.988Z,8.53
2018-10-02T12:26:18.394Z,8.17
2018-10-02T12:28:46.889Z,4.13
2018-10-02T12:31:15.455Z,17.17
2018-10-02T12:33:44.145Z,6.87
2018-10-02T12:36:13.122Z,8.93
2018-10-02T12:38:41.988Z,6.93
2018-10-02T12:41:10.453Z,3.93
2018-10-02T12:43:39.025Z,4.83
2018-10-02T12:46:07.586Z,8.77
2018-10-02T12:48:36.286Z,7.27
2018-10-02T12:51:05.044Z,6.63
2018-10-02T12:53:33.758Z,6.67
2018-10-02T12:56:02.218Z,6.57
2018-10-02T12:58:30.711Z,8.73
2018-10-02T13:00:59.697Z,8.17
2018-10-02T13:03:28.403Z,8.17
2018-10-02T13:05:57.134Z,10.40
2018-10-02T13:08:25.781Z,13.07
2018-10-02T13:10:54.253Z,8.60
2018-10-02T13:13:22.815Z,12.67
2018-10-02T13:15:51.791Z,8.83
2018-10-02T13:18:20.513Z,6.67
2018-10-02T13:20:49.407Z,12.20
2018-10-02T13:23:18.883Z,6.57
2018-10-02T13:25:47.888Z,10.57
2018-10-02T13:28:16.542Z,7.63
2018-10-02T13:30:45.100Z,10.20
2018-10-02T13:33:13.497Z,7.73
2018-10-02T13:35:41.982Z,5.93
2018-10-02T13:38:10.558Z,7.90
2018-10-02T13:40:38.963Z,10.23
2018-10-02T13:43:07.827Z,5.93
2018-10-02T13:45:36.340Z,6.80
2018-10-02T13:48:04.773Z,11.00
2018-10-02T13:50:33.820Z,5.37
2018-10-02T13:53:02.529Z,5.53
2018-10-02T13:55:31.025Z,8.70
2018-10-02T13:57:59.548Z,5.67
2018-10-02T14:00:28.135Z,4.23
2018-10-02T14:02:56.599Z,6.53
2018-10-02T14:05:25.105Z,4.47
2018-10-02T14:07:53.763Z,7.37
2018-10-02T14:10:22.398Z,6.47
2018-10-02T14:12:50.866Z,4.37
2018-10-02T14:15:19.602Z,9.57
2018-10-02T14:17:48.127Z,6.43
2018-10-02T14:20:16.613Z,4.40
2018-10-02T14:22:45.141Z,8.00
2018-10-02T14:25:13.710Z,7.03
2018-10-02T14:27:42.205Z,10.17
2018-10-02T14:30:10.663Z,8.93
2018-10-02T14:32:39.116Z,8.50
2018-10-02T14:35:08.669Z,8.37
2018-10-02T14:37:37.145Z,6.67
2018-10-02T14:40:05.541Z,11.80
2018-10-02T14:42:34.119Z,10.97
2018-10-02T14:45:02.641Z,5.27
2018-10-02T14:47:31.100Z,14.43
2018-10-02T14:49:59.492Z,10.33
2018-10-02T14:52:28.446Z,8.17
2018-10-02T14:54:56.986Z,10.20
2018-10-02T14:57:25.457Z,7.73
2018-10-02T14:59:54.446Z,9.93
2018-10-02T15:02:22.872Z,7.97
2018-10-02T15:04:51.338Z,5.70
2018-10-02T15:07:19.874Z,9.67
2018-10-02T15:09:48.305Z,8.10
2018-10-02T15:12:16.891Z,9.40
2018-10-02T15:14:45.396Z,11.57
2018-10-02T15:17:13.864Z,9.93
2018-10-02T15:19:42.281Z,6.97
2018-10-02T15:22:10.932Z,8.10
2018-10-02T15:24:39.956Z,9.93
2018-10-02T15:27:08.403Z,7.70
2018-10-02T15:29:37.554Z,10.60
2018-10-02T15:32:05.987Z,13.83
2018-10-02T15:34:34.448Z,9.60
2018-10-02T15:37:02.983Z,8.60
2018-10-02T15:39:31.537Z,12.30
2018-10-02T15:42:00.349Z,4.03
2018-10-02T15:44:28.876Z,17.53
2018-10-02T15:46:57.352Z,11.03
2018-10-02T15:49:25.797Z,9.73
2018-10-02T15:51:54.541Z,8.87
2018-10-02T15:54:22.969Z,6.07
2018-10-02T15:56:51.603Z,8.60
2018-10-02T15:59:20.022Z,13.97
2018-10-02T16:01:48.629Z,7.73
2018-10-02T16:04:17.303Z,8.33
2018-10-02T16:06:45.744Z,9.40
2018-10-02T16:09:14.187Z,14.63
2018-10-02T16:11:43.780Z,13.43
2018-10-02T16:14:12.355Z,7.17
2018-10-02T16:16:40.876Z,12.73
2018-10-02T16:19:09.360Z,7.23
2018-10-02T16:21:37.765Z,10.20
2018-10-02T16:24:06.213Z,10.03
2018-10-02T16:26:34.680Z,9.47
2018-10-02T16:29:03.091Z,5.77
2018-10-02T16:31:31.769Z,8.67
2018-10-02T16:34:00.141Z,10.83
2018-10-02T16:36:28.644Z,9.73
2018-10-02T16:38:57.138Z,12.13
2018-10-02T16:41:25.813Z,9.90
2018-10-02T16:43:54.246Z,13.80
2018-10-02T16:46:22.711Z,10.80
2018-10-02T16:48:51.205Z,11.40
2018-10-02T16:51:19.840Z,14.10
2018-10-02T16:53:48.497Z,10.23
2018-10-02T16:56:17.217Z,17.13
2018-10-02T16:58:45.946Z,12.40
2018-10-02T17:01:14.422Z,8.90
2018-10-02T17:03:43.013Z,7.20
2018-10-02T17:06:13.935Z,8.03
2018-10-02T17:08:42.569Z,7.93
2018-10-02T17:11:10.965Z,15.27
2018-10-02T17:13:40.551Z,14.47
2018-10-02T17:16:09.106Z,11.50
2018-10-02T17:18:37.599Z,9.80
2018-10-02T17:21:06.195Z,13.27
2018-10-02T17:23:34.645Z,9.53
2018-10-02T17:26:03.082Z,11.77
2018-10-02T17:28:31.464Z,12.33
2018-10-02T17:30:59.904Z,15.13
2018-10-02T17:33:28.365Z,7.33
2018-10-02T17:35:56.839Z,11.00
2018-10-02T17:38:25.286Z,11.33
2018-10-02T17:40:53.768Z,14.60
2018-10-02T17:43:22.232Z,10.60
2018-10-02T17:45:50.889Z,10.77
2018-10-02T17:48:19.365Z,13.40
2018-10-02T17:50:47.767Z,13.67
2018-10-02T17:53:16.197Z,11.27
2018-10-02T17:55:45.296Z,16.47
2018-10-02T17:58:13.749Z,9.07
2018-10-02T18:00:42.178Z,11.43
2018-10-02T18:03:10.671Z,12.50
2018-10-02T18:05:39.131Z,14.77
2018-10-02T18:08:07.633Z,11.80
2018-10-02T18:10:36.056Z,10.27
2018-10-02T18:13:04.543Z,12.20
2018-10-02T18:15:33.056Z,19.00
2018-10-02T18:18:01.667Z,17.83
2018-10-02T18:20:30.226Z,8.93
2018-10-02T18:22:59.000Z,14.03
2018-10-02T18:25:27.747Z,9.20
2018-10-02T18:27:56.500Z,15.00
2018-10-02T18:30:25.218Z,12.97
2018-10-02T18:32:53.948Z,13.93
2018-10-02T18:35:22.685Z,15.70
2018-10-02T18:37:51.405Z,11.50
2018-10-02T18:40:20.217Z,9.67
2018-10-02T18:42:49.026Z,10.33
2018-10-02T18:45:17.873Z,12.67
2018-10-02T18:47:46.674Z,12.13
2018-10-02T18:50:15.437Z,10.83
2018-10-02T18:52:44.152Z,18.40
2018-10-02T18:55:12.884Z,11.97
2018-10-02T18:57:41.726Z,12.97
2018-10-02T19:00:10.374Z,15.80
2018-10-02T19:02:39.116Z,12.10
2018-10-02T19:05:07.868Z,13.47
2018-10-02T19:07:36.644Z,12.33
2018-10-02T19:10:05.423Z,12.43
2018-10-02T19:12:34.185Z,12.83
2018-10-02T19:15:02.983Z,10.63
2018-10-02T19:17:31.704Z,10.63
2018-10-02T19:20:05.687Z,11.33
2018-10-02T19:22:34.433Z,20.10
2018-10-02T19:25:08.537Z,15.53
2018-10-02T19:27:37.175Z,9.27
2018-10-02T19:30:11.566Z,12.60
2018-10-02T19:32:40.338Z,14.10
2018-10-02T19:35:09.184Z,9.27
2018-10-02T19:37:43.241Z,15.53
2018-10-02T19:40:11.945Z,13.63
2018-10-02T19:42:40.664Z,8.97
2018-10-02T19:45:14.818Z,12.60
2018-10-02T19:47:43.586Z,14.67
2018-10-02T19:50:12.333Z,13.73
2018-10-02T19:52:41.076Z,17.33
2018-10-02T19:55:09.788Z,19.97
2018-10-02T19:57:38.534Z,14.83
2018-10-02T20:00:07.972Z,17.73
2018-10-02T20:02:36.747Z,9.70
2018-10-02T20:05:05.533Z,19.63
2018-10-02T20:07:34.225Z,9.77
2018-10-02T20:10:02.990Z,10.63
2018-10-02T20:12:32.355Z,10.60
2018-10-02T20:15:00.991Z,8.57
2018-10-02T20:17:29.442Z,13.17
2018-10-02T20:19:57.836Z,18.07
2018-10-02T20:22:26.339Z,14.90
2018-10-02T20:24:55.505Z,13.47
2018-10-02T20:27:24.095Z,18.70
2018-10-02T20:29:52.405Z,16.03
2018-10-02T20:32:20.841Z,16.07
2018-10-02T20:34:49.309Z,20.70
2018-10-02T20:37:17.817Z,13.37
2018-10-02T20:39:47.354Z,14.47
2018-10-02T20:42:15.936Z,17.37
2018-10-02T20:44:45.716Z,23.57
2018-10-02T20:47:14.274Z,12.63
2018-10-02T20:49:42.815Z,17.00
2018-10-02T20:52:11.464Z,25.67
2018-10-02T20:54:40.117Z,22.23
2018-10-02T20:57:08.691Z,23.10
2018-10-02T20:59:37.274Z,15.20
2018-10-02T21:02:05.835Z,12.73
2018-10-02T21:04:34.437Z,19.50
2018-10-02T21:07:03.001Z,20.83
2018-10-02T21:09:31.457Z,14.63
2018-10-02T21:12:00.437Z,18.67
2018-10-02T21:14:29.033Z,12.03
2018-10-02T21:16:57.731Z,15.73
2018-10-02T21:19:26.467Z,16.87
2018-10-02T21:21:55.141Z,17.00
2018-10-02T21:24:23.717Z,19.77
2018-10-02T21:26:52.434Z,10.50
2018-10-02T21:29:21.692Z,20.90
2018-10-02T21:31:50.197Z,20.77
2018-10-02T21:34:18.881Z,13.83
2018-10-02T21:36:47.381Z,18.67
2018-10-02T21:39:15.860Z,22.30
2018-10-02T21:41:45.513Z,18.07
2018-10-02T21:44:14.004Z,17.50
2018-10-02T21:46:42.420Z,19.37
2018-10-02T21:49:10.992Z,15.97
2018-10-02T21:51:39.493Z,16.90
2018-10-02T21:54:07.956Z,18.60
2018-10-02T21:56:36.565Z,18.13
2018-10-02T21:59:04.982Z,19.80
2018-10-02T22:01:33.402Z,14.03
2018-10-02T22:04:01.874Z,13.03
2018-10-02T22:06:30.297Z,21.00
2018-10-02T22:08:58.733Z,15.07
2018-10-02T22:11:27.126Z,11.57
2018-10-02T22:13:55.589Z,15.23
2018-10-02T22:16:24.017Z,16.43
2018-10-02T22:18:52.494Z,19.67
2018-10-02T22:21:29.723Z,11.53
2018-10-02T22:23:58.221Z,22.43
2018-10-02T22:26:26.676Z,16.57
2018-10-02T22:28:55.177Z,23.13
2018-10-02T22:31:23.707Z,15.57
2018-10-02T22:33:53.013Z,26.50
2018-10-02T22:36:21.570Z,18.20
2018-10-02T22:38:50.004Z,20.53
2018-10-02T22:41:18.489Z,22.00
2018-10-02T22:43:48.152Z,19.63
2018-10-02T22:46:16.568Z,18.57
2018-10-02T22:48:44.954Z,19.73
2018-10-02T22:51:13.458Z,15.87
2018-10-02T22:53:41.868Z,16.83
2018-10-02T22:56:10.297Z,18.33
2018-10-02T22:58:38.740Z,13.47
2018-10-02T23:01:07.398Z,15.03
2018-10-02T23:03:35.878Z,27.23
2018-10-02T23:06:04.281Z,21.60
2018-10-02T23:08:32.694Z,14.67
2018-10-02T23:11:01.222Z,23.57
2018-10-02T23:13:29.962Z,18.47
2018-10-02T23:15:58.394Z,17.47
2018-10-02T23:18:27.118Z,17.50
2018-10-02T23:20:55.547Z,21.83
2018-10-02T23:23:24.043Z,15.30
2018-10-02T23:25:52.542Z,26.30
2018-10-02T23:28:21.493Z,24.77
2018-10-02T23:30:50.939Z,20.17
2018-10-02T23:33:19.436Z,16.83
2018-10-02T23:35:47.919Z,17.13
2018-10-02T23:38:16.592Z,22.50
2018-10-02T23:40:45.022Z,21.33
2018-10-02T23:43:13.444Z,27.63
2018-10-02T23:45:41.877Z,12.43
2018-10-02T23:48:10.300Z,23.57
2018-10-02T23:50:38.788Z,12.10
2018-10-02T23:53:07.607Z,29.83
2018-10-02T23:55:36.103Z,18.90
2018-10-02T23:58:04.751Z,19.40
